createdAt,value
2018-09-22T00:00:58.226Z,11.50
2018-09-22T00:03:27.711Z,11.50
2018-09-22T00:05:57.261Z,11.50
2018-09-22T00:08:26.586Z,11.50
2018-09-22T00:10:56.792Z,11.40
2018-09-22T00:13:26.459Z,11.40
2018-09-22T00:15:56.050Z,11.30
2018-09-22T00:18:25.525Z,11.30
2018-09-22T00:20:55.343Z,11.30
2018-09-22T00:23:25.012Z,11.30
2018-09-22T00:25:55.019Z,11.40
2018-09-22T00:28:24.720Z,11.40
2018-09-22T00:30:55.325Z,11.40
2018-09-22T00:33:25.117Z,11.50
2018-09-22T00:35:54.688Z,11.50
2018-09-22T00:38:24.492Z,11.50
2018-09-22T00:40:54.166Z,11.50
2018-09-22T00:43:23.671Z,11.50
2018-09-22T00:45:53.751Z,11.50
2018-09-22T00:48:23.681Z,11.50
2018-09-22T00:50:53.344Z,11.50
2018-09-22T00:53:22.712Z,11.50
2018-09-22T00:55:52.554Z,11.50
2018-09-22T00:58:21.932Z,11.50
2018-09-22T01:00:51.699Z,11.50
2018-09-22T01:03:20.947Z,11.60
2018-09-22T01:05:50.192Z,11.60
2018-09-22T01:08:19.483Z,11.60
2018-09-22T01:10:48.824Z,11.60
2018-09-22T01:13:18.074Z,11.60
2018-09-22T01:15:47.410Z,11.70
2018-09-22T01:18:16.524Z,11.70
2018-09-22T01:20:45.739Z,11.80
2018-09-22T01:23:14.996Z,11.80
2018-09-22T01:25:44.284Z,11.80
2018-09-22T01:28:13.502Z,11.80
2018-09-22T01:30:42.748Z,11.70
2018-09-22T01:33:11.930Z,11.70
2018-09-22T01:35:41.187Z,11.70
2018-09-22T01:38:10.383Z,11.70
2018-09-22T01:40:39.695Z,11.70
2018-09-22T01:43:08.991Z,11.70
2018-09-22T01:45:38.358Z,11.70
2018-09-22T01:48:07.722Z,11.70
2018-09-22T01:50:36.943Z,11.70
2018-09-22T01:53:06.186Z,11.70
2018-09-22T01:55:35.389Z,11.70
2018-09-22T01:58:04.635Z,11.70
2018-09-22T02:00:33.861Z,11.70
2018-09-22T02:03:03.133Z,11.70
2018-09-22T02:05:32.330Z,11.60
2018-09-22T02:08:01.603Z,11.70
2018-09-22T02:10:31.143Z,11.70
2018-09-22T02:13:00.396Z,11.70
2018-09-22T02:15:29.646Z,11.60
2018-09-22T02:17:58.857Z,11.70
2018-09-22T02:20:28.109Z,11.60
2018-09-22T02:22:57.340Z,11.60
2018-09-22T02:25:26.770Z,11.60
2018-09-22T02:27:56.144Z,11.60
2018-09-22T02:30:25.543Z,11.60
2018-09-22T02:32:54.805Z,11.60
2018-09-22T02:35:24.031Z,11.60
2018-09-22T02:37:53.248Z,11.50
2018-09-22T02:40:22.448Z,11.50
2018-09-22T02:42:51.684Z,11.40
2018-09-22T02:45:21.090Z,11.50
2018-09-22T02:47:50.348Z,11.40
2018-09-22T02:50:19.797Z,11.50
2018-09-22T02:52:49.083Z,11.50
2018-09-22T02:55:18.448Z,11.40
2018-09-22T02:57:47.657Z,11.40
2018-09-22T03:00:17.314Z,11.40
2018-09-22T03:02:48.539Z,11.40
2018-09-22T03:05:18.183Z,11.40
2018-09-22T03:07:47.420Z,11.40
2018-09-22T03:10:16.644Z,11.40
2018-09-22T03:12:45.889Z,11.40
2018-09-22T03:15:18.051Z,11.40
2018-09-22T03:17:49.035Z,11.40
2018-09-22T03:20:18.523Z,11.40
2018-09-22T03:22:47.768Z,11.50
2018-09-22T03:25:17.124Z,11.40
2018-09-22T03:27:46.915Z,11.40
2018-09-22T03:30:16.232Z,11.40
2018-09-22T03:32:46.739Z,11.40
2018-09-22T03:35:16.643Z,11.40
2018-09-22T03:37:47.846Z,11.30
2018-09-22T03:40:18.529Z,11.30
2018-09-22T03:42:50.031Z,11.30
2018-09-22T03:45:20.728Z,11.30
2018-09-22T03:47:51.186Z,11.20
2018-09-22T03:50:21.126Z,11.20
2018-09-22T03:52:51.485Z,11.20
2018-09-22T03:55:21.575Z,11.20
2018-09-22T03:57:52.241Z,11.10
2018-09-22T04:00:22.796Z,11.10
2018-09-22T04:02:53.533Z,11.10
2018-09-22T04:05:23.734Z,11.00
2018-09-22T04:07:54.065Z,11.00
2018-09-22T04:10:24.690Z,11.00
2018-09-22T04:12:56.363Z,11.10
2018-09-22T04:15:27.180Z,11.10
2018-09-22T04:17:58.547Z,11.10
2018-09-22T04:20:29.128Z,11.20
2018-09-22T04:23:00.395Z,11.10
2018-09-22T04:25:32.689Z,11.10
2018-09-22T04:28:02.960Z,11.20
2018-09-22T04:30:33.706Z,11.20
2018-09-22T04:33:04.108Z,11.10
2018-09-22T04:35:35.263Z,11.10
2018-09-22T04:38:08.230Z,11.10
2018-09-22T04:40:38.978Z,11.10
2018-09-22T04:43:09.284Z,11.10
2018-09-22T04:45:40.479Z,11.00
2018-09-22T04:48:11.689Z,11.00
2018-09-22T04:50:46.255Z,11.10
2018-09-22T04:53:18.444Z,11.00
2018-09-22T04:55:49.735Z,11.00
2018-09-22T04:58:21.564Z,11.00
2018-09-22T05:00:51.334Z,11.00
2018-09-22T05:03:22.357Z,11.00
2018-09-22T05:05:53.335Z,11.00
2018-09-22T05:08:27.683Z,10.90
2018-09-22T05:11:01.856Z,11.00
2018-09-22T05:13:33.216Z,11.00
2018-09-22T05:16:06.940Z,11.00
2018-09-22T05:18:36.875Z,11.00
2018-09-22T05:21:08.736Z,11.00
2018-09-22T05:23:40.449Z,11.10
2018-09-22T05:26:10.612Z,11.10
2018-09-22T05:28:40.795Z,11.10
2018-09-22T05:31:14.974Z,11.10
2018-09-22T05:33:54.477Z,11.10
2018-09-22T05:51:23.522Z,11.30
2018-09-22T05:54:08.548Z,11.30
2018-09-22T06:02:46.109Z,11.40
2018-09-22T06:05:15.539Z,11.40
2018-09-22T06:07:46.480Z,11.40
2018-09-22T06:10:19.704Z,11.40
2018-09-22T06:12:51.869Z,11.50
2018-09-22T06:15:21.299Z,11.50
2018-09-22T06:17:50.772Z,11.50
2018-09-22T06:20:21.294Z,11.50
2018-09-22T06:22:50.894Z,11.50
2018-09-22T06:25:20.422Z,11.60
2018-09-22T06:27:49.864Z,11.60
2018-09-22T06:30:19.540Z,11.70
2018-09-22T06:32:49.397Z,11.70
2018-09-22T06:35:19.917Z,11.80
2018-09-22T06:37:49.444Z,11.80
2018-09-22T06:40:19.115Z,11.90
2018-09-22T06:42:48.496Z,12.00
2018-09-22T06:45:17.974Z,12.10
2018-09-22T06:47:47.355Z,12.10
2018-09-22T06:50:16.779Z,12.30
2018-09-22T06:52:52.727Z,12.40
2018-09-22T06:55:24.487Z,12.50
2018-09-22T06:58:00.789Z,12.80
2018-09-22T07:00:31.586Z,13.00
2018-09-22T07:03:01.382Z,13.10
2018-09-22T07:05:32.668Z,13.20
2018-09-22T07:08:04.772Z,13.20
2018-09-22T07:10:35.704Z,13.30
2018-09-22T07:13:06.411Z,13.30
2018-09-22T07:15:36.123Z,13.40
2018-09-22T07:18:08.482Z,13.50
2018-09-22T07:20:48.279Z,13.70
2018-09-22T07:23:23.692Z,13.70
2018-09-22T07:25:56.517Z,13.80
2018-09-22T07:28:28.673Z,14.00
2018-09-22T07:31:01.533Z,14.10
2018-09-22T07:33:35.998Z,14.20
2018-09-22T07:36:08.058Z,14.40
2018-09-22T07:38:51.484Z,14.60
2018-09-22T07:41:29.794Z,14.80
2018-09-22T07:44:08.727Z,14.90
2018-09-22T07:46:40.407Z,14.90
2018-09-22T07:49:11.642Z,14.90
2018-09-22T07:51:42.380Z,14.90
2018-09-22T07:54:20.764Z,15.00
2018-09-22T07:56:52.838Z,15.00
2018-09-22T07:59:24.117Z,14.90
2018-09-22T08:01:58.428Z,14.90
2018-09-22T08:04:30.813Z,14.80
2018-09-22T08:07:01.120Z,14.90
2018-09-22T08:09:30.663Z,14.90
2018-09-22T08:12:01.573Z,15.00
2018-09-22T08:14:33.986Z,15.20
2018-09-22T08:17:03.777Z,15.30
2018-09-22T08:19:34.627Z,15.60
2018-09-22T08:22:04.702Z,15.70
2018-09-22T08:24:34.559Z,15.70
2018-09-22T08:27:06.559Z,15.70
2018-09-22T08:29:36.385Z,15.70
2018-09-22T08:32:07.889Z,15.60
2018-09-22T08:34:38.645Z,15.60
2018-09-22T08:37:11.442Z,15.60
2018-09-22T08:39:41.750Z,15.80
2018-09-22T08:55:42.039Z,15.50
2018-09-22T09:00:55.126Z,15.10
2018-09-22T09:03:24.994Z,15.00
2018-09-22T09:05:54.977Z,15.00
2018-09-22T09:08:24.452Z,15.10
2018-09-22T09:10:53.741Z,15.10
2018-09-22T09:13:23.073Z,15.20
2018-09-22T09:15:52.343Z,15.20
2018-09-22T09:18:21.649Z,15.30
2018-09-22T09:20:50.916Z,15.40
2018-09-22T09:23:20.204Z,15.50
2018-09-22T09:28:47.814Z,15.30
2018-09-22T09:31:24.282Z,15.10
2018-09-22T09:37:46.844Z,15.20
2018-09-22T09:40:25.080Z,15.30
2018-09-22T09:43:20.021Z,15.30
2018-09-22T09:46:17.890Z,15.20
2018-09-22T09:48:59.623Z,15.10
2018-09-22T09:51:32.844Z,15.20
2018-09-22T09:54:06.237Z,15.40
2018-09-22T09:56:48.738Z,15.50
2018-09-22T10:02:21.237Z,15.40
2018-09-22T10:07:53.641Z,15.50
2018-09-22T10:20:40.911Z,15.10
2018-09-22T10:37:18.613Z,15.00
2018-09-22T10:39:53.040Z,15.50
2018-09-22T10:42:23.611Z,15.60
2018-09-22T10:44:55.470Z,15.80
2018-09-22T10:47:31.486Z,15.70
2018-09-22T10:50:01.054Z,15.70
2018-09-22T10:52:30.377Z,15.70
2018-09-22T10:55:00.449Z,15.70
2018-09-22T10:57:30.312Z,15.70
2018-09-22T11:00:00.243Z,15.70
2018-09-22T11:02:30.027Z,15.70
2018-09-22T11:05:01.652Z,15.60
2018-09-22T11:07:31.870Z,15.60
2018-09-22T11:10:02.579Z,15.70
2018-09-22T11:12:34.638Z,15.70
2018-09-22T11:15:08.543Z,15.70
2018-09-22T11:17:38.922Z,15.70
2018-09-22T11:20:09.678Z,15.70
2018-09-22T11:22:40.078Z,15.80
2018-09-22T11:25:10.584Z,15.90
2018-09-22T11:27:40.331Z,15.90
2018-09-22T11:30:11.023Z,15.90
2018-09-22T11:32:40.453Z,15.80
2018-09-22T11:35:10.238Z,15.70
2018-09-22T11:37:40.462Z,15.80
2018-09-22T11:40:10.991Z,15.80
2018-09-22T11:42:40.428Z,15.90
2018-09-22T11:45:12.078Z,15.90
2018-09-22T11:47:43.048Z,15.90
2018-09-22T11:50:13.349Z,15.80
2018-09-22T11:52:44.272Z,15.90
2018-09-22T11:55:15.420Z,15.80
2018-09-22T11:57:45.850Z,15.90
2018-09-22T12:00:17.771Z,15.80
2018-09-22T12:02:47.520Z,15.80
2018-09-22T12:05:17.239Z,15.90
2018-09-22T12:07:46.831Z,16.00
2018-09-22T12:10:18.372Z,16.00
2018-09-22T12:12:48.347Z,16.00
2018-09-22T12:15:32.039Z,16.00
2018-09-22T12:20:52.601Z,16.20
2018-09-22T12:26:20.426Z,16.40
2018-09-22T12:28:50.164Z,16.50
2018-09-22T12:31:27.784Z,16.70
2018-09-22T12:33:57.701Z,16.80
2018-09-22T12:36:27.888Z,16.90
2018-09-22T12:38:57.301Z,17.10
2018-09-22T12:41:26.570Z,16.90
2018-09-22T12:43:55.862Z,17.00
2018-09-22T12:46:25.376Z,17.00
2018-09-22T12:48:54.932Z,17.00
2018-09-22T12:51:24.259Z,16.90
2018-09-22T12:53:53.502Z,16.90
2018-09-22T12:56:23.162Z,17.00
2018-09-22T12:58:52.433Z,16.90
2018-09-22T13:01:21.760Z,16.80
2018-09-22T13:03:52.048Z,16.60
2018-09-22T13:06:21.334Z,16.50
2018-09-22T13:08:50.968Z,16.70
2018-09-22T13:11:20.807Z,16.80
2018-09-22T13:13:50.343Z,16.70
2018-09-22T13:16:20.002Z,16.50
2018-09-22T13:18:49.239Z,16.50
2018-09-22T13:21:18.707Z,16.30
2018-09-22T13:23:47.935Z,16.30
2018-09-22T13:26:17.210Z,16.30
2018-09-22T13:28:46.421Z,16.40
2018-09-22T13:31:15.589Z,16.30
2018-09-22T13:33:57.806Z,16.30
2018-09-22T13:36:26.974Z,16.20
2018-09-22T13:38:56.203Z,16.30
2018-09-22T13:41:25.391Z,16.30
2018-09-22T13:43:54.691Z,16.30
2018-09-22T13:46:24.054Z,16.30
2018-09-22T13:48:53.328Z,16.40
2018-09-22T13:51:22.642Z,16.70
2018-09-22T13:53:51.949Z,16.90
2018-09-22T13:56:21.261Z,16.80
2018-09-22T13:58:50.447Z,16.70
2018-09-22T14:01:19.668Z,16.70
2018-09-22T14:03:48.993Z,16.60
2018-09-22T14:06:18.174Z,16.40
2018-09-22T14:08:47.394Z,16.30
2018-09-22T14:11:16.677Z,16.10
2018-09-22T14:13:45.917Z,16.10
2018-09-22T14:16:15.179Z,15.90
2018-09-22T14:18:44.566Z,16.00
2018-09-22T14:21:13.812Z,16.10
2018-09-22T14:23:43.093Z,16.10
2018-09-22T14:26:12.443Z,16.00
2018-09-22T14:28:41.652Z,16.10
2018-09-22T14:31:10.967Z,16.10
2018-09-22T14:33:40.212Z,16.00
2018-09-22T14:36:09.459Z,16.00
2018-09-22T14:38:38.791Z,16.00
2018-09-22T14:41:08.104Z,16.10
2018-09-22T14:43:37.344Z,16.30
2018-09-22T14:46:06.596Z,16.40
2018-09-22T14:48:35.923Z,16.50
2018-09-22T14:51:05.933Z,16.40
2018-09-22T14:53:36.679Z,16.40
2018-09-22T14:56:06.799Z,16.30
2018-09-22T14:58:36.657Z,16.20
2018-09-22T15:01:06.264Z,16.10
2018-09-22T15:03:38.667Z,16.00
2018-09-22T15:06:08.133Z,15.90
2018-09-22T15:08:37.465Z,16.00
2018-09-22T15:11:06.849Z,15.90
2018-09-22T15:13:36.136Z,15.90
2018-09-22T15:16:05.455Z,15.90
2018-09-22T15:18:34.933Z,16.00
2018-09-22T15:21:04.220Z,16.00
2018-09-22T15:23:33.475Z,16.00
2018-09-22T15:26:03.068Z,16.00
2018-09-22T15:28:32.628Z,16.10
2018-09-22T15:31:01.941Z,16.10
2018-09-22T15:33:31.209Z,16.10
2018-09-22T15:36:00.793Z,16.10
2018-09-22T15:38:29.975Z,16.20
2018-09-22T15:40:59.293Z,16.10
2018-09-22T15:43:28.492Z,16.20
2018-09-22T15:45:58.319Z,16.10
2018-09-22T15:48:28.031Z,16.10
2018-09-22T15:50:57.138Z,16.10
2018-09-22T15:53:26.482Z,16.00
2018-09-22T15:55:58.787Z,16.00
2018-09-22T15:58:29.945Z,16.00
2018-09-22T16:00:59.678Z,15.90
2018-09-22T16:03:33.076Z,15.90
2018-09-22T16:06:02.792Z,15.80
2018-09-22T16:08:32.406Z,15.70
2018-09-22T16:11:01.791Z,15.60
2018-09-22T16:13:31.076Z,15.50
2018-09-22T16:16:00.385Z,15.40
2018-09-22T16:18:29.939Z,15.40
2018-09-22T16:20:59.241Z,15.30
2018-09-22T16:23:28.544Z,15.30
2018-09-22T16:25:57.970Z,15.20
2018-09-22T16:28:27.665Z,15.10
2018-09-22T16:30:56.976Z,15.10
2018-09-22T16:33:26.268Z,15.00
2018-09-22T16:35:55.595Z,15.00
2018-09-22T16:38:24.903Z,14.90
2018-09-22T16:40:54.712Z,15.00
2018-09-22T16:43:24.103Z,15.00
2018-09-22T16:45:53.455Z,15.00
2018-09-22T16:48:22.779Z,14.90
2018-09-22T16:50:52.116Z,14.90
2018-09-22T16:53:21.484Z,14.80
2018-09-22T16:55:50.939Z,14.80
2018-09-22T16:58:22.862Z,14.80
2018-09-22T17:00:52.337Z,14.80
2018-09-22T17:03:21.671Z,14.80
2018-09-22T17:05:50.949Z,14.80
2018-09-22T17:08:20.140Z,14.80
2018-09-22T17:10:49.394Z,14.90
2018-09-22T17:13:18.918Z,14.90
2018-09-22T17:15:48.234Z,14.90
2018-09-22T17:18:17.630Z,14.90
2018-09-22T17:20:46.939Z,14.80
2018-09-22T17:23:16.276Z,14.80
2018-09-22T17:25:45.472Z,14.80
2018-09-22T17:28:14.727Z,14.80
2018-09-22T17:30:43.938Z,14.80
2018-09-22T17:33:13.200Z,14.80
2018-09-22T17:35:42.375Z,14.80
2018-09-22T17:38:11.909Z,14.80
2018-09-22T17:40:41.530Z,14.70
2018-09-22T17:43:10.849Z,14.70
2018-09-22T17:45:40.148Z,14.70
2018-09-22T17:48:09.451Z,14.70
2018-09-22T17:50:39.243Z,14.70
2018-09-22T17:53:08.788Z,14.70
2018-09-22T17:55:40.534Z,14.70
2018-09-22T17:58:10.230Z,14.70
2018-09-22T18:00:39.893Z,14.70
2018-09-22T18:03:09.699Z,14.60
2018-09-22T18:05:39.418Z,14.60
2018-09-22T18:08:09.200Z,14.50
2018-09-22T18:10:38.886Z,14.50
2018-09-22T18:13:08.521Z,14.40
2018-09-22T18:15:37.944Z,14.40
2018-09-22T18:18:07.641Z,14.30
2018-09-22T18:20:37.348Z,14.30
2018-09-22T18:23:07.040Z,14.30
2018-09-22T18:25:36.456Z,14.30
2018-09-22T18:28:05.905Z,14.20
2018-09-22T18:30:35.528Z,14.20
2018-09-22T18:33:05.656Z,14.30
2018-09-22T18:35:35.327Z,14.30
2018-09-22T18:38:04.831Z,14.30
2018-09-22T18:40:34.877Z,14.30
2018-09-22T18:43:05.088Z,14.30
2018-09-22T18:45:34.934Z,14.20
2018-09-22T18:48:06.379Z,14.10
2018-09-22T18:50:36.973Z,14.10
2018-09-22T18:53:08.675Z,14.00
2018-09-22T18:55:40.020Z,13.90
2018-09-22T18:58:10.198Z,13.90
2018-09-22T19:00:40.327Z,13.80
2018-09-22T19:03:10.262Z,13.80
2018-09-22T19:05:41.782Z,13.70
2018-09-22T19:08:12.976Z,13.60
2018-09-22T19:10:43.443Z,13.50
2018-09-22T19:13:16.249Z,13.50
2018-09-22T19:15:55.252Z,13.50
2018-09-22T19:18:39.758Z,13.40
2018-09-22T19:21:18.018Z,13.40
2018-09-22T19:23:57.177Z,13.40
2018-09-22T19:26:35.065Z,13.40
2018-09-22T19:29:10.055Z,13.30
2018-09-22T19:31:46.040Z,13.30
2018-09-22T19:34:27.425Z,13.20
2018-09-22T19:37:01.312Z,13.20
2018-09-22T19:40:34.735Z,13.20
2018-09-22T19:43:11.011Z,13.30
2018-09-22T19:45:46.263Z,13.30
2018-09-22T19:48:20.033Z,13.30
2018-09-22T19:50:54.612Z,13.20
2018-09-22T19:53:25.144Z,13.30
2018-09-22T19:55:55.576Z,13.30
2018-09-22T19:58:25.635Z,13.30
2018-09-22T20:00:55.679Z,13.20
2018-09-22T20:03:25.803Z,13.20
2018-09-22T20:05:55.929Z,13.20
2018-09-22T20:08:26.460Z,13.20
2018-09-22T20:10:57.028Z,13.20
2018-09-22T20:13:27.230Z,13.20
2018-09-22T20:15:57.268Z,13.20
2018-09-22T20:18:27.103Z,13.20
2018-09-22T20:20:57.267Z,13.20
2018-09-22T20:23:32.267Z,13.20
2018-09-22T20:26:02.047Z,13.30
2018-09-22T20:28:31.985Z,13.30
2018-09-22T20:31:01.654Z,13.20
2018-09-22T20:33:31.075Z,13.20
2018-09-22T20:36:01.457Z,13.20
2018-09-22T20:38:31.480Z,13.20
2018-09-22T20:41:01.450Z,13.20
2018-09-22T20:43:31.138Z,13.20
2018-09-22T20:46:01.389Z,13.20
2018-09-22T20:48:33.600Z,13.10
2018-09-22T20:51:04.808Z,13.20
2018-09-22T20:53:42.733Z,13.20
2018-09-22T20:56:17.851Z,13.20
2018-09-22T20:58:52.447Z,13.20
2018-09-22T21:01:25.628Z,13.20
2018-09-22T21:03:56.883Z,13.10
2018-09-22T21:06:28.389Z,13.10
2018-09-22T21:08:59.625Z,13.00
2018-09-22T21:11:31.156Z,13.10
2018-09-22T21:14:07.287Z,13.00
2018-09-22T21:16:39.324Z,13.00
2018-09-22T21:19:16.493Z,13.00
2018-09-22T21:21:47.824Z,13.00
2018-09-22T21:24:19.746Z,13.00
2018-09-22T21:26:51.153Z,12.90
2018-09-22T21:29:23.395Z,12.90
2018-09-22T21:31:53.916Z,12.90
2018-09-22T21:34:23.932Z,12.90
2018-09-22T21:36:54.901Z,13.00
2018-09-22T21:39:24.533Z,13.00
2018-09-22T21:41:54.679Z,13.00
2018-09-22T21:44:30.029Z,13.10
2018-09-22T21:46:59.940Z,13.10
2018-09-22T21:49:30.068Z,13.10
2018-09-22T21:52:01.141Z,13.10
2018-09-22T21:54:33.020Z,13.20
2018-09-22T21:57:03.690Z,13.20
2018-09-22T21:59:34.844Z,13.20
2018-09-22T22:02:05.091Z,13.30
2018-09-22T22:04:38.562Z,13.30
2018-09-22T22:07:10.286Z,13.30
2018-09-22T22:09:45.884Z,13.30
2018-09-22T22:12:17.205Z,13.20
2018-09-22T22:15:01.253Z,13.10
2018-09-22T22:17:33.991Z,12.90
2018-09-22T22:20:09.776Z,12.80
2018-09-22T22:22:41.281Z,12.60
2018-09-22T22:25:19.716Z,12.50
2018-09-22T22:27:50.192Z,12.40
2018-09-22T22:30:21.335Z,12.30
2018-09-22T22:32:54.515Z,12.30
2018-09-22T22:35:28.026Z,12.20
2018-09-22T22:38:02.017Z,12.10
2018-09-22T22:40:33.770Z,12.10
2018-09-22T22:43:06.997Z,12.10
2018-09-22T22:45:37.999Z,12.10
2018-09-22T22:48:07.805Z,12.00
2018-09-22T22:50:38.389Z,12.00
2018-09-22T22:53:08.980Z,12.10
2018-09-22T22:55:38.837Z,12.10
2018-09-22T22:58:10.028Z,12.10
2018-09-22T23:00:39.790Z,12.00
2018-09-22T23:03:10.996Z,12.00
2018-09-22T23:05:41.406Z,12.00
2018-09-22T23:08:11.133Z,12.10
2018-09-22T23:10:40.510Z,12.10
2018-09-22T23:13:09.763Z,12.10
2018-09-22T23:15:38.947Z,12.00
2018-09-22T23:18:08.206Z,12.00
2018-09-22T23:20:37.518Z,12.00
2018-09-22T23:23:06.873Z,12.00
2018-09-22T23:25:36.114Z,11.90
2018-09-22T23:28:05.363Z,12.00
2018-09-22T23:30:34.555Z,12.00
2018-09-22T23:33:03.791Z,12.00
2018-09-22T23:35:33.150Z,11.90
2018-09-22T23:38:02.392Z,12.00
2018-09-22T23:40:35.729Z,11.90
2018-09-22T23:43:05.135Z,11.90
2018-09-22T23:45:34.364Z,11.80
2018-09-22T23:48:03.566Z,11.80
2018-09-22T23:50:32.863Z,11.70
2018-09-22T23:53:02.079Z,11.70
2018-09-22T23:55:31.316Z,11.70
2018-09-22T23:58:00.618Z,11.60
